createdAt,value
2017-10-09T00:01:47.537Z,8.18
2017-10-09T00:04:13.752Z,8.15
2017-10-09T00:06:39.980Z,8.14
2017-10-09T00:09:06.225Z,8.13
2017-10-09T00:11:32.448Z,8.14
2017-10-09T00:13:58.700Z,8.11
2017-10-09T00:16:24.931Z,8.11
2017-10-09T00:18:51.161Z,8.10
2017-10-09T00:21:17.399Z,8.11
2017-10-09T00:23:43.625Z,8.08
2017-10-09T00:26:09.858Z,8.05
2017-10-09T00:28:36.101Z,8.10
2017-10-09T00:31:02.347Z,8.13
2017-10-09T00:33:28.590Z,8.06
2017-10-09T00:35:54.811Z,8.05
2017-10-09T00:38:21.073Z,8.01
2017-10-09T00:40:47.306Z,8.07
2017-10-09T00:43:13.517Z,8.15
2017-10-09T00:45:39.745Z,8.22
2017-10-09T00:48:05.974Z,8.36
2017-10-09T00:50:32.227Z,8.38
2017-10-09T00:52:58.525Z,8.37
2017-10-09T00:55:24.759Z,8.44
2017-10-09T00:57:50.990Z,8.45
2017-10-09T01:00:17.236Z,8.46
2017-10-09T01:02:43.483Z,8.44
2017-10-09T01:05:09.716Z,8.47
2017-10-09T01:07:35.946Z,8.45
2017-10-09T01:10:02.184Z,8.52
2017-10-09T01:12:28.402Z,8.47
2017-10-09T01:14:54.668Z,8.55
2017-10-09T01:17:20.883Z,8.64
2017-10-09T01:19:47.148Z,8.78
2017-10-09T01:22:13.388Z,8.88
2017-10-09T01:24:39.601Z,8.98
2017-10-09T01:27:05.834Z,9.04
2017-10-09T01:29:32.074Z,9.07
2017-10-09T01:31:58.319Z,9.09
2017-10-09T01:34:24.622Z,9.14
2017-10-09T01:36:50.862Z,9.05
2017-10-09T01:39:17.094Z,9.21
2017-10-09T01:41:43.315Z,9.19
2017-10-09T01:44:09.550Z,9.21
2017-10-09T01:46:35.781Z,9.24
2017-10-09T01:49:01.999Z,9.22
2017-10-09T01:51:28.258Z,9.18
2017-10-09T01:53:54.470Z,9.11
2017-10-09T01:56:20.705Z,9.13
2017-10-09T01:58:46.952Z,9.11
2017-10-09T02:01:13.322Z,9.02
2017-10-09T02:03:39.552Z,8.99
2017-10-09T02:06:05.791Z,8.95
2017-10-09T02:08:32.016Z,8.83
2017-10-09T02:10:58.254Z,8.98
2017-10-09T02:13:24.460Z,9.03
2017-10-09T02:15:50.901Z,8.96
2017-10-09T02:18:17.125Z,9.11
2017-10-09T02:20:43.356Z,9.27
2017-10-09T02:23:09.603Z,9.39
2017-10-09T02:25:35.823Z,9.35
2017-10-09T02:28:02.076Z,9.42
2017-10-09T02:30:28.324Z,9.35
2017-10-09T02:32:54.693Z,9.40
2017-10-09T02:35:20.945Z,9.31
2017-10-09T02:37:47.166Z,9.42
2017-10-09T02:40:13.414Z,9.42
2017-10-09T02:42:39.643Z,9.47
2017-10-09T02:45:05.850Z,9.59
2017-10-09T02:47:32.085Z,9.60
2017-10-09T02:49:58.325Z,9.56
2017-10-09T02:52:24.608Z,9.62
2017-10-09T02:54:50.825Z,9.77
2017-10-09T02:57:17.040Z,9.86
2017-10-09T02:59:43.412Z,9.97
2017-10-09T03:02:09.626Z,10.03
2017-10-09T03:04:35.856Z,10.12
2017-10-09T03:07:02.096Z,10.24
2017-10-09T03:09:28.329Z,10.26
2017-10-09T03:11:54.554Z,10.25
2017-10-09T03:14:20.767Z,10.17
2017-10-09T03:16:47.027Z,10.03
2017-10-09T03:19:13.240Z,10.00
2017-10-09T03:21:39.458Z,9.86
2017-10-09T03:24:05.689Z,9.73
2017-10-09T03:26:31.913Z,9.82
2017-10-09T03:28:58.179Z,9.79
2017-10-09T03:31:24.412Z,9.78
2017-10-09T03:33:50.647Z,9.80
2017-10-09T03:36:16.860Z,9.78
2017-10-09T03:38:43.085Z,9.82
2017-10-09T03:41:09.313Z,9.92
2017-10-09T03:43:35.576Z,10.07
2017-10-09T03:46:01.781Z,9.97
2017-10-09T03:48:28.042Z,10.05
2017-10-09T03:50:54.432Z,10.14
2017-10-09T03:53:20.666Z,10.16
2017-10-09T03:55:46.900Z,10.13
2017-10-09T03:58:13.124Z,10.19
2017-10-09T04:00:39.354Z,10.31
2017-10-09T04:03:05.575Z,10.33
2017-10-09T04:05:31.847Z,10.25
2017-10-09T04:07:58.120Z,10.36
2017-10-09T04:10:24.333Z,10.41
2017-10-09T04:12:50.553Z,10.39
2017-10-09T04:15:16.772Z,10.39
2017-10-09T04:17:43.039Z,10.34
2017-10-09T04:20:09.256Z,10.43
2017-10-09T04:22:35.477Z,10.36
2017-10-09T04:25:01.727Z,10.39
2017-10-09T04:27:27.951Z,10.40
2017-10-09T04:29:54.175Z,10.40
2017-10-09T04:32:20.390Z,10.42
2017-10-09T04:34:46.601Z,10.42
2017-10-09T04:37:12.844Z,10.50
2017-10-09T04:39:39.099Z,10.62
2017-10-09T04:42:05.349Z,10.63
2017-10-09T04:44:31.569Z,10.64
2017-10-09T04:46:57.760Z,10.68
2017-10-09T04:49:24.004Z,10.52
2017-10-09T04:51:50.244Z,10.65
2017-10-09T04:54:16.538Z,10.66
2017-10-09T04:56:42.764Z,10.76
2017-10-09T04:59:08.994Z,10.86
2017-10-09T05:01:35.232Z,11.12
2017-10-09T05:04:01.477Z,11.18
2017-10-09T05:06:27.692Z,11.15
2017-10-09T05:08:53.914Z,11.15
2017-10-09T05:11:20.129Z,11.19
2017-10-09T05:13:46.348Z,11.14
2017-10-09T05:16:12.748Z,11.17
2017-10-09T05:18:39.016Z,11.16
2017-10-09T05:21:05.231Z,11.14
2017-10-09T05:23:31.441Z,11.16
2017-10-09T05:25:57.866Z,11.25
2017-10-09T05:28:24.100Z,11.40
2017-10-09T05:30:50.328Z,11.46
2017-10-09T05:33:16.556Z,11.51
2017-10-09T05:35:42.792Z,11.65
2017-10-09T05:38:09.203Z,11.81
2017-10-09T05:40:35.420Z,11.79
2017-10-09T05:43:01.684Z,12.02
2017-10-09T05:45:27.911Z,12.15
2017-10-09T05:47:54.141Z,12.42
2017-10-09T05:50:20.359Z,12.55
2017-10-09T05:52:46.564Z,12.72
2017-10-09T05:55:12.796Z,12.91
2017-10-09T05:57:39.030Z,13.15
2017-10-09T06:00:05.256Z,13.25
2017-10-09T06:02:31.618Z,13.52
2017-10-09T06:04:57.843Z,13.86
2017-10-09T06:07:24.106Z,14.00
2017-10-09T06:09:50.396Z,14.36
2017-10-09T06:12:16.611Z,14.61
2017-10-09T06:14:42.821Z,14.87
2017-10-09T06:17:09.037Z,15.09
2017-10-09T06:19:35.290Z,15.54
2017-10-09T06:22:01.528Z,15.92
2017-10-09T06:24:27.749Z,16.26
2017-10-09T06:26:53.973Z,16.40
2017-10-09T06:29:20.189Z,16.59
2017-10-09T06:31:46.396Z,16.37
2017-10-09T06:34:12.612Z,16.41
2017-10-09T06:36:38.835Z,16.32
2017-10-09T06:39:05.052Z,16.59
2017-10-09T06:41:31.365Z,16.67
2017-10-09T06:43:57.637Z,17.71
2017-10-09T06:46:23.858Z,19.69
2017-10-09T06:48:50.103Z,21.37
2017-10-09T06:51:16.334Z,22.73
2017-10-09T06:53:42.550Z,23.57
2017-10-09T06:56:08.822Z,24.00
2017-10-09T06:58:35.101Z,23.88
2017-10-09T07:01:01.342Z,23.70
2017-10-09T07:03:27.557Z,23.86
2017-10-09T07:05:53.796Z,24.18
2017-10-09T07:08:20.043Z,24.89
2017-10-09T07:10:46.261Z,25.38
2017-10-09T07:13:12.499Z,24.49
2017-10-09T07:15:38.739Z,24.60
2017-10-09T07:18:04.962Z,24.48
2017-10-09T07:20:31.232Z,25.12
2017-10-09T07:22:57.460Z,25.04
2017-10-09T07:25:23.678Z,23.01
2017-10-09T07:27:49.926Z,22.51
2017-10-09T07:30:16.198Z,22.16
2017-10-09T07:32:42.557Z,21.92
2017-10-09T07:35:08.770Z,21.23
2017-10-09T07:37:35.003Z,21.05
2017-10-09T07:40:01.221Z,22.23
2017-10-09T07:42:27.436Z,22.72
2017-10-09T07:44:53.672Z,23.27
2017-10-09T07:47:19.895Z,22.39
2017-10-09T07:49:46.140Z,21.46
2017-10-09T07:52:12.372Z,22.02
2017-10-09T07:54:38.669Z,22.41
2017-10-09T07:57:04.898Z,21.26
2017-10-09T07:59:31.299Z,22.27
2017-10-09T08:01:57.568Z,21.62
2017-10-09T08:04:23.811Z,20.62
2017-10-09T08:06:50.028Z,20.37
2017-10-09T08:09:16.258Z,20.43
2017-10-09T08:11:42.476Z,20.61
2017-10-09T08:14:08.714Z,21.28
2017-10-09T08:16:35.158Z,21.16
2017-10-09T08:19:01.372Z,20.86
2017-10-09T08:21:27.608Z,20.20
2017-10-09T08:23:53.836Z,20.23
2017-10-09T08:26:20.061Z,20.74
2017-10-09T08:28:46.282Z,20.45
2017-10-09T08:31:12.495Z,21.52
2017-10-09T08:33:38.717Z,20.36
2017-10-09T08:36:04.938Z,20.81
2017-10-09T08:38:31.198Z,20.43
2017-10-09T08:40:57.428Z,20.12
2017-10-09T08:43:23.659Z,20.01
2017-10-09T08:45:49.897Z,20.84
2017-10-09T08:48:16.129Z,20.78
2017-10-09T08:50:42.357Z,20.73
2017-10-09T08:53:08.595Z,20.97
2017-10-09T08:55:34.835Z,20.72
2017-10-09T08:58:01.061Z,20.54
2017-10-09T09:00:27.276Z,20.51
2017-10-09T09:02:53.538Z,21.12
2017-10-09T09:05:19.764Z,21.68
2017-10-09T09:07:45.992Z,21.76
2017-10-09T09:10:12.200Z,22.35
2017-10-09T09:12:38.412Z,23.19
2017-10-09T09:15:04.715Z,22.60
2017-10-09T09:17:30.948Z,22.41
2017-10-09T09:19:57.177Z,23.15
2017-10-09T09:22:23.416Z,22.63
2017-10-09T09:24:49.664Z,23.13
2017-10-09T09:27:15.889Z,24.30
2017-10-09T09:29:42.112Z,23.81
2017-10-09T09:32:08.348Z,23.03
2017-10-09T09:34:34.590Z,23.17
2017-10-09T09:37:00.806Z,23.45
2017-10-09T09:39:27.029Z,23.46
2017-10-09T09:41:53.249Z,23.05
2017-10-09T09:44:19.479Z,22.90
2017-10-09T09:46:45.727Z,22.73
2017-10-09T09:49:11.940Z,21.87
2017-10-09T09:51:38.213Z,21.10
2017-10-09T09:54:04.438Z,20.62
2017-10-09T09:56:30.782Z,20.80
2017-10-09T09:58:57.215Z,21.07
2017-10-09T10:01:23.421Z,22.92
2017-10-09T10:03:49.658Z,24.13
2017-10-09T10:06:15.889Z,24.45
2017-10-09T10:08:42.142Z,25.52
2017-10-09T10:11:08.358Z,26.37
2017-10-09T10:13:34.573Z,24.74
2017-10-09T10:16:00.840Z,23.46
2017-10-09T10:18:27.054Z,21.96
2017-10-09T10:20:53.282Z,21.58
2017-10-09T10:23:19.736Z,20.66
2017-10-09T10:25:45.982Z,20.30
2017-10-09T10:28:12.206Z,20.17
2017-10-09T10:30:38.525Z,20.68
2017-10-09T10:33:04.733Z,22.49
2017-10-09T10:35:30.967Z,23.37
2017-10-09T10:37:57.479Z,23.25
2017-10-09T10:40:23.732Z,22.35
2017-10-09T10:42:49.959Z,21.67
2017-10-09T10:45:16.222Z,21.39
2017-10-09T10:47:42.445Z,21.28
2017-10-09T10:50:08.653Z,22.25
2017-10-09T10:52:34.893Z,24.15
2017-10-09T10:55:01.113Z,25.88
2017-10-09T10:57:27.359Z,26.08
2017-10-09T10:59:53.586Z,25.96
2017-10-09T11:02:19.837Z,25.38
2017-10-09T11:04:46.052Z,25.55
2017-10-09T11:07:12.273Z,25.14
2017-10-09T11:09:38.498Z,24.21
2017-10-09T11:12:04.892Z,23.80
2017-10-09T11:14:31.117Z,23.72
2017-10-09T11:16:57.355Z,23.41
2017-10-09T11:19:23.605Z,22.67
2017-10-09T11:21:49.820Z,22.23
2017-10-09T11:24:16.064Z,21.77
2017-10-09T11:26:42.290Z,21.23
2017-10-09T11:29:08.532Z,20.78
2017-10-09T11:31:34.757Z,20.53
2017-10-09T11:34:00.997Z,20.20
2017-10-09T11:36:27.210Z,20.06
2017-10-09T11:38:53.421Z,20.71
2017-10-09T11:41:19.684Z,20.08
2017-10-09T11:43:45.914Z,20.39
2017-10-09T11:46:12.144Z,20.21
2017-10-09T11:48:38.422Z,20.20
2017-10-09T11:51:04.660Z,19.74
2017-10-09T11:53:30.896Z,19.72
2017-10-09T11:55:57.135Z,19.58
2017-10-09T11:58:23.358Z,19.39
2017-10-09T12:00:49.600Z,19.46
2017-10-09T12:03:15.835Z,19.68
2017-10-09T12:05:42.127Z,20.06
2017-10-09T12:08:08.356Z,22.21
2017-10-09T12:10:34.586Z,24.35
2017-10-09T12:13:00.851Z,26.15
2017-10-09T12:15:27.064Z,26.68
2017-10-09T12:17:53.481Z,26.61
2017-10-09T12:20:19.914Z,26.24
2017-10-09T12:22:46.140Z,24.87
2017-10-09T12:25:12.375Z,24.72
2017-10-09T12:27:38.593Z,24.82
2017-10-09T12:30:04.818Z,25.09
2017-10-09T12:32:31.034Z,24.38
2017-10-09T12:34:57.257Z,24.31
2017-10-09T12:37:23.465Z,24.21
2017-10-09T12:39:49.678Z,23.94
2017-10-09T12:42:15.901Z,22.67
2017-10-09T12:44:42.367Z,22.38
2017-10-09T12:47:08.579Z,23.51
2017-10-09T12:49:34.800Z,25.42
2017-10-09T12:52:01.083Z,25.77
2017-10-09T12:54:27.300Z,25.76
2017-10-09T12:56:53.529Z,25.37
2017-10-09T12:59:19.759Z,24.66
2017-10-09T13:01:45.986Z,23.55
2017-10-09T13:04:12.229Z,22.60
2017-10-09T13:06:38.435Z,21.87
2017-10-09T13:09:04.700Z,21.92
2017-10-09T13:11:30.910Z,20.87
2017-10-09T13:13:57.116Z,20.84
2017-10-09T13:16:23.351Z,20.42
2017-10-09T13:18:49.557Z,20.41
2017-10-09T13:21:15.779Z,20.09
2017-10-09T13:23:42.107Z,19.96
2017-10-09T13:26:08.362Z,20.05
2017-10-09T13:28:34.579Z,20.20
2017-10-09T13:31:00.937Z,20.41
2017-10-09T13:33:27.239Z,20.73
2017-10-09T13:35:53.439Z,21.20
2017-10-09T13:38:19.672Z,21.29
2017-10-09T13:40:45.898Z,21.25
2017-10-09T13:43:12.136Z,21.36
2017-10-09T13:45:38.368Z,20.95
2017-10-09T13:48:04.594Z,20.80
2017-10-09T13:50:30.831Z,20.75
2017-10-09T13:52:57.059Z,20.53
2017-10-09T13:55:23.270Z,20.58
2017-10-09T13:57:49.517Z,20.61
2017-10-09T14:00:15.755Z,20.55
2017-10-09T14:02:41.979Z,20.40
2017-10-09T14:05:08.206Z,20.42
2017-10-09T14:07:34.444Z,20.23
2017-10-09T14:10:00.712Z,20.39
2017-10-09T14:12:26.951Z,20.27
2017-10-09T14:14:53.170Z,20.07
2017-10-09T14:17:19.395Z,20.00
2017-10-09T14:19:45.581Z,19.72
2017-10-09T14:22:11.794Z,19.87
2017-10-09T14:24:38.023Z,19.99
2017-10-09T14:27:04.237Z,19.90
2017-10-09T14:29:30.490Z,19.86
2017-10-09T14:41:41.416Z,18.81
2017-10-09T14:44:07.639Z,18.87
2017-10-09T14:46:33.881Z,18.81
2017-10-09T14:49:00.112Z,18.46
2017-10-09T14:51:26.418Z,18.47
2017-10-09T14:53:52.622Z,18.46
2017-10-09T14:56:18.851Z,18.40
2017-10-09T14:58:45.182Z,18.44
2017-10-09T15:01:11.397Z,18.35
2017-10-09T15:03:37.613Z,18.26
2017-10-09T15:06:03.843Z,18.22
2017-10-09T15:08:30.056Z,18.17
2017-10-09T15:10:56.327Z,18.01
2017-10-09T15:13:22.559Z,17.86
2017-10-09T15:15:48.788Z,17.74
2017-10-09T15:18:15.037Z,17.68
2017-10-09T15:20:41.258Z,17.58
2017-10-09T15:23:07.473Z,17.45
2017-10-09T15:25:33.686Z,17.40
2017-10-09T15:27:59.897Z,17.36
2017-10-09T15:30:26.114Z,17.28
2017-10-09T15:32:52.349Z,17.21
2017-10-09T15:35:18.588Z,17.08
2017-10-09T15:37:44.810Z,16.94
2017-10-09T15:40:11.034Z,16.67
2017-10-09T15:42:37.291Z,16.43
2017-10-09T15:45:03.510Z,16.14
2017-10-09T15:47:29.750Z,15.88
2017-10-09T15:49:55.970Z,15.69
2017-10-09T15:52:22.190Z,15.55
2017-10-09T15:54:48.457Z,15.45
2017-10-09T15:57:14.772Z,15.29
2017-10-09T15:59:41.064Z,15.16
2017-10-09T16:02:07.273Z,15.07
2017-10-09T16:04:33.578Z,14.92
2017-10-09T16:06:59.965Z,14.83
2017-10-09T16:09:26.525Z,14.77
2017-10-09T16:11:52.756Z,14.72
2017-10-09T16:14:19.290Z,14.61
2017-10-09T16:16:45.668Z,14.47
2017-10-09T16:19:11.929Z,14.30
2017-10-09T16:21:38.221Z,14.22
2017-10-09T16:24:04.465Z,14.02
2017-10-09T16:26:30.717Z,13.92
2017-10-09T16:28:56.959Z,13.81
2017-10-09T16:31:23.212Z,13.74
2017-10-09T16:33:49.432Z,13.61
2017-10-09T16:36:15.655Z,13.58
2017-10-09T16:38:41.915Z,13.56
2017-10-09T16:41:08.246Z,13.47
2017-10-09T16:43:34.477Z,13.32
2017-10-09T16:46:00.688Z,13.26
2017-10-09T16:48:26.905Z,13.18
2017-10-09T16:50:53.128Z,13.04
2017-10-09T16:53:19.402Z,13.04
2017-10-09T16:55:45.598Z,12.93
2017-10-09T16:58:11.806Z,12.84
2017-10-09T17:00:38.219Z,12.72
2017-10-09T17:03:04.420Z,12.70
2017-10-09T17:05:30.630Z,12.64
2017-10-09T17:07:56.833Z,12.60
2017-10-09T17:10:23.085Z,12.60
2017-10-09T17:12:49.296Z,12.53
2017-10-09T17:15:15.500Z,12.55
2017-10-09T17:17:41.838Z,12.48
2017-10-09T17:20:08.063Z,12.41
2017-10-09T17:22:34.352Z,12.32
2017-10-09T17:25:00.552Z,12.24
2017-10-09T17:27:26.753Z,12.18
2017-10-09T17:29:53.061Z,12.16
2017-10-09T17:32:19.295Z,11.99
2017-10-09T17:34:45.637Z,11.88
2017-10-09T17:37:11.839Z,11.99
2017-10-09T17:39:38.046Z,11.84
2017-10-09T17:42:04.264Z,11.86
2017-10-09T17:44:30.502Z,11.79
2017-10-09T17:46:56.707Z,11.80
2017-10-09T17:49:22.923Z,11.68
2017-10-09T17:51:49.252Z,11.70
2017-10-09T17:54:15.465Z,11.62
2017-10-09T17:56:41.663Z,11.62
2017-10-09T17:59:07.869Z,11.55
2017-10-09T18:01:34.074Z,11.45
2017-10-09T18:04:00.297Z,11.45
2017-10-09T18:06:26.522Z,11.37
2017-10-09T18:08:52.755Z,11.39
2017-10-09T18:11:19.014Z,11.43
2017-10-09T18:13:45.231Z,11.45
2017-10-09T18:16:11.439Z,11.44
2017-10-09T18:18:37.667Z,11.38
2017-10-09T18:21:03.890Z,11.36
2017-10-09T18:23:30.132Z,11.24
2017-10-09T18:25:56.358Z,11.13
2017-10-09T18:28:22.556Z,11.10
2017-10-09T18:30:48.761Z,11.07
2017-10-09T18:33:14.997Z,11.09
2017-10-09T18:35:41.349Z,11.10
2017-10-09T18:38:07.567Z,10.99
2017-10-09T18:40:33.832Z,10.95
2017-10-09T18:43:00.063Z,10.81
2017-10-09T18:45:26.268Z,10.75
2017-10-09T18:47:53.524Z,10.67
2017-10-09T18:50:19.740Z,10.62
2017-10-09T18:52:45.935Z,10.54
2017-10-09T18:55:12.164Z,10.56
2017-10-09T18:57:38.960Z,10.70
2017-10-09T19:00:05.168Z,10.61
2017-10-09T19:02:31.516Z,10.48
2017-10-09T19:04:57.710Z,10.43
2017-10-09T19:07:23.946Z,10.42
2017-10-09T19:09:50.143Z,10.42
2017-10-09T19:12:16.386Z,10.46
2017-10-09T19:14:42.606Z,10.54
2017-10-09T19:17:08.831Z,10.63
2017-10-09T19:19:35.087Z,10.48
2017-10-09T19:22:01.297Z,10.42
2017-10-09T19:24:27.520Z,10.30
2017-10-09T19:26:53.748Z,10.31
2017-10-09T19:29:19.988Z,10.17
2017-10-09T19:31:46.255Z,9.99
2017-10-09T19:34:12.471Z,9.97
2017-10-09T19:36:38.699Z,10.05
2017-10-09T19:39:04.918Z,9.87
2017-10-09T19:41:31.138Z,9.81
2017-10-09T19:43:57.428Z,9.74
2017-10-09T19:46:23.631Z,9.53
2017-10-09T19:48:49.834Z,9.53
2017-10-09T19:51:16.054Z,9.56
2017-10-09T19:53:42.279Z,9.52
2017-10-09T19:56:08.528Z,9.48
2017-10-09T19:58:34.735Z,9.50
2017-10-09T20:01:00.994Z,9.45
2017-10-09T20:03:27.229Z,9.36
2017-10-09T20:05:53.443Z,9.23
2017-10-09T20:08:19.702Z,9.35
2017-10-09T20:10:45.926Z,9.51
2017-10-09T20:13:12.130Z,9.50
2017-10-09T20:15:38.358Z,9.55
2017-10-09T20:18:04.581Z,9.47
2017-10-09T20:20:30.838Z,9.32
2017-10-09T20:22:57.049Z,9.20
2017-10-09T20:25:23.264Z,9.21
2017-10-09T20:27:49.490Z,9.03
2017-10-09T20:30:15.717Z,8.97
2017-10-09T20:32:42.014Z,8.90
2017-10-09T20:35:08.247Z,8.91
2017-10-09T20:37:34.447Z,8.88
2017-10-09T20:40:00.680Z,8.95
2017-10-09T20:42:26.891Z,8.88
2017-10-09T20:44:53.151Z,9.03
2017-10-09T20:47:19.369Z,8.96
2017-10-09T20:49:45.572Z,8.89
2017-10-09T20:52:11.820Z,8.77
2017-10-09T20:54:38.132Z,8.75
2017-10-09T20:57:04.401Z,8.62
2017-10-09T20:59:30.647Z,8.50
2017-10-09T21:01:56.863Z,8.46
2017-10-09T21:04:23.093Z,8.41
2017-10-09T21:06:49.325Z,8.31
2017-10-09T21:09:15.572Z,8.31
2017-10-09T21:11:41.782Z,8.35
2017-10-09T21:14:08.032Z,8.22
2017-10-09T21:16:34.267Z,8.20
2017-10-09T21:19:00.494Z,8.16
2017-10-09T21:21:26.765Z,8.13
2017-10-09T21:23:52.981Z,8.11
2017-10-09T21:26:19.191Z,8.14
2017-10-09T21:28:45.436Z,8.16
2017-10-09T21:31:11.661Z,8.26
2017-10-09T21:33:37.887Z,8.26
2017-10-09T21:36:04.122Z,8.19
2017-10-09T21:38:30.340Z,8.08
2017-10-09T21:40:56.580Z,7.99
2017-10-09T21:43:22.841Z,8.08
2017-10-09T21:45:49.108Z,8.20
2017-10-09T21:48:15.341Z,8.15
2017-10-09T21:50:41.555Z,8.13
2017-10-09T21:53:07.793Z,8.04
2017-10-09T21:55:34.020Z,8.07
2017-10-09T21:58:00.270Z,8.19
2017-10-09T22:00:26.498Z,8.09
2017-10-09T22:02:52.725Z,7.96
2017-10-09T22:05:18.956Z,7.89
2017-10-09T22:07:45.189Z,7.86
2017-10-09T22:10:11.448Z,7.82
2017-10-09T22:12:37.670Z,7.75
2017-10-09T22:15:03.897Z,7.67
2017-10-09T22:17:30.120Z,7.62
2017-10-09T22:19:56.340Z,7.70
2017-10-09T22:22:22.563Z,7.76
2017-10-09T22:24:48.776Z,7.82
2017-10-09T22:27:15.008Z,7.84
2017-10-09T22:29:41.251Z,7.90
2017-10-09T22:32:07.469Z,7.85
2017-10-09T22:34:33.747Z,7.84
2017-10-09T22:36:59.965Z,7.77
2017-10-09T22:39:26.282Z,7.81
2017-10-09T22:41:52.545Z,7.80
2017-10-09T22:44:18.792Z,7.74
2017-10-09T22:46:45.053Z,7.68
2017-10-09T22:49:11.288Z,7.58
2017-10-09T22:51:37.539Z,7.53
2017-10-09T22:54:03.820Z,7.45
2017-10-09T22:56:30.066Z,7.42
2017-10-09T22:58:56.323Z,7.35
2017-10-09T23:01:22.595Z,7.29
2017-10-09T23:03:48.834Z,7.26
2017-10-09T23:06:15.050Z,7.29
2017-10-09T23:08:41.428Z,7.39
2017-10-09T23:11:07.680Z,7.38
2017-10-09T23:13:33.921Z,7.34
2017-10-09T23:16:00.170Z,7.22
2017-10-09T23:18:26.431Z,7.16
2017-10-09T23:20:52.672Z,7.16
2017-10-09T23:23:18.919Z,7.36
2017-10-09T23:25:45.209Z,7.24
2017-10-09T23:28:11.444Z,7.21
2017-10-09T23:30:37.688Z,7.29
2017-10-09T23:33:03.940Z,7.26
2017-10-09T23:35:30.172Z,7.20
2017-10-09T23:37:56.416Z,7.15
2017-10-09T23:40:22.653Z,7.09
2017-10-09T23:42:48.886Z,7.10
2017-10-09T23:45:15.114Z,7.21
2017-10-09T23:47:41.337Z,7.24
2017-10-09T23:50:07.614Z,7.34
2017-10-09T23:52:33.851Z,7.22
2017-10-09T23:55:00.093Z,7.29
2017-10-09T23:57:26.333Z,7.35
2017-10-09T23:59:52.580Z,7.33
